Swan River, MN (55784)

4:16 PM CDT on July 13, 2014 (GMT -0500)
Grand Rapids-Itasca County-Newstrom Field (KGPZ) Elev 1355 ft | 47.21 °N, 93.51 °W | Change Station

Current weather conditions updated 21 minutes ago

Overcast
Overcast
66 °F
Feels Like 66 °F
N
10
Wind Variable Wind from West
Gusts 17 mph

Tomorrow is forecast to be Cooler than today. Showers possible.

Today
High -- | Low -- °F
--% Chance of Precip.
Yesterday
High -- | Low -- °F
Precip. -- in
5:30 AM 9:05 PM
Full, 97% visible
Pressure 29.86 in
Visibility 10.0 miles
Clouds Few 5500 ft
Mostly Cloudy 7500 ft
Overcast 8500 ft
Dew Point 45 °F
Humidity 46%
Rainfall 0.00 in
Snow Depth Not available.
UV 2 out of 12
Pollen 3.90 out of 12
Air Quality Not available.
Flu Activity Sporadic
METAR KGPZ 132055Z AUTO 26009G15KT 10SM FEW055 BKN075 OVC085 19/07 A2986 RMK AO1 57010

More Conditions Fewer Conditions

Pressure 29.86 in
Visibility 10.0 miles
Clouds Few 5500 ft
Mostly Cloudy 7500 ft
Overcast 8500 ft
Dew Point 45 °F
Humidity 46%
Rainfall 0.00 in
Snow Depth Not available.
UV 2 out of 12
Pollen 3.90 out of 12
Air Quality Not available.
Flu Activity Sporadic
METAR KGPZ 132055Z AUTO 26009G15KT 10SM FEW055 BKN075 OVC085 19/07 A2986 RMK AO1 57010

More Conditions Fewer Conditions

10-Day Weather Forecast

Almanac

Astronomy

Jul. 13, 2014 Rise Set
Actual Time 5:30 AM CDT 9:05 PM CDT
Civil Twilight 4:52 AM CDT 9:44 PM CDT
Nautical Twilight 4:01 AM CDT 10:35 PM CDT
Astronomical Twilight 2:51 AM CDT 11:43 PM CDT
Moon 9:42 PM CDT 7:11 AM CDT
Length of Visible Light 16h 51m
Length of Day
15h 34m
Tomorrow will be 1m 42s shorter.
Full, 97% of the Moon is Illuminated
Today
Full
Jul 18
Last Quarter
Jul 26
New
Aug 3
First Quarter
Aug 10
Full

Today's Extremes

State Highs State Lows

Community

WunderPhotos

Upload Photos

1,733,394 photos uploaded!

Nearby

Snow Depth

Station Depth Elevation
No new snow has been reported.

Earthquake Activity

City Distance Mag. Time & Date
No recent earthquake activity has been reported nearby.
Minimum magnitude displayed is 2.5.

Coastal Water Temperatures

Place Temperature
No Stations Reporting

Nearby Weather Stations

Station Location Temp. Heat Index Dew Point Humidity Wind Precip. Elev Updated Type
RAWS HILL CITY MN, Hill City, MN 71 °F 77 °F 48 °F 44% West  at  7 mph 0.00 in / hr 1339 ft 3:07 PM CDT MADIS
Southwest, Grand Rapids, MN 68.2 °F - 49 °F 50% North  at  6.9 mph 0.00 in / hr 1322 ft 4:11 PM CDT Normal
Northwest, Grand Rapids, MN 72.3 °F 77 °F 48 °F 42% North  at  0.0 mph 0.00 in / hr 1289 ft 4:16 PM CDT Rapid Fire
Near Hwy 63, Cohasset, MN 67.0 °F - 46 °F 48% West  at  6.0 mph 0.00 in / hr 1305 ft 4:09 PM CDT Normal

Show More Stations Show Fewer Stations